Cadmus, Michigan
Current Conditions -  °F | °C
As of 6:53 AM on Friday 19 Dec 2014 (Local Time) from KADG Reporting Station
Haze Haze  
Wind Chill: 24°   Ceiling: 2100
Heat Index: 29°   Visibility: 6mi
Dew Point: 25°   Wind: 5mph
Humidity: 85%   Direction: 300°WNW
Pressure: 30.24"   Gusts: NA
Location:  41.9076°N, 84.0644°W
Report Text: KADG 191153Z AUTO 30004KT 6SM BR OVC021 M02/M04 A3024 RMK AO2 SLP251 T10171039 11017 21017 53007 $
Loading
Personal Weather Stations






























Interactive Weather Map New forecast layout! Learn more

10-Day Weather Forecast

Advertisements
Track Severe Weather on mobile